sensor_id;sensor_type;location;lat;lon;timestamp;pressure;altitude;pressure_sealevel;temperature;humidity
76858;BME280;65830;0.000;0.000;2023-12-20T00:00:47;100204.53;;;2.17;100.00
76858;BME280;65830;0.000;0.000;2023-12-20T00:03:13;100210.00;;;2.12;100.00
76858;BME280;65830;0.000;0.000;2023-12-20T00:05:38;100198.59;;;2.13;100.00
76858;BME280;65830;0.000;0.000;2023-12-20T00:08:06;100199.19;;;2.20;100.00
76858;BME280;65830;0.000;0.000;2023-12-20T00:10:31;100204.53;;;2.17;100.00
76858;BME280;65830;0.000;0.000;2023-12-20T00:12:57;100208.84;;;2.18;100.00
76858;BME280;65830;0.000;0.000;2023-12-20T00:15:22;100195.75;;;2.18;100.00
76858;BME280;65830;0.000;0.000;2023-12-20T00:17:48;100197.69;;;2.14;100.00
76858;BME280;65830;0.000;0.000;2023-12-20T00:20:13;100187.06;;;2.17;100.00
76858;BME280;65830;0.000;0.000;2023-12-20T00:22:39;100194.06;;;2.17;100.00
76858;BME280;65830;0.000;0.000;2023-12-20T00:25:04;100202.56;;;2.22;100.00
76858;BME280;65830;0.000;0.000;2023-12-20T00:27:30;100194.44;;;2.46;100.00
76858;BME280;65830;0.000;0.000;2023-12-20T00:29:55;100188.06;;;2.69;100.00
76858;BME280;65830;0.000;0.000;2023-12-20T00:32:21;100186.09;;;2.74;100.00
76858;BME280;65830;0.000;0.000;2023-12-20T00:34:46;100184.75;;;2.65;100.00
76858;BME280;65830;0.000;0.000;2023-12-20T00:37:12;100176.53;;;2.73;100.00
76858;BME280;65830;0.000;0.000;2023-12-20T00:39:37;100171.59;;;2.67;100.00
76858;BME280;65830;0.000;0.000;2023-12-20T00:42:03;100163.09;;;2.79;100.00
76858;BME280;65830;0.000;0.000;2023-12-20T00:44:28;100162.56;;;2.72;100.00
76858;BME280;65830;0.000;0.000;2023-12-20T00:46:53;100156.13;;;2.80;100.00
76858;BME280;65830;0.000;0.000;2023-12-20T00:49:19;100157.41;;;2.71;100.00
76858;BME280;65830;0.000;0.000;2023-12-20T00:51:44;100146.22;;;2.67;100.00
76858;BME280;65830;0.000;0.000;2023-12-20T00:54:10;100152.53;;;2.46;100.00
76858;BME280;65830;0.000;0.000;2023-12-20T00:56:35;100147.06;;;2.50;100.00
76858;BME280;65830;0.000;0.000;2023-12-20T00:59:01;100150.31;;;2.38;100.00
76858;BME280;65830;0.000;0.000;2023-12-20T01:01:26;100151.97;;;2.39;100.00
76858;BME280;65830;0.000;0.000;2023-12-20T01:03:52;100147.59;;;2.39;100.00
76858;BME280;65830;0.000;0.000;2023-12-20T01:06:18;100148.53;;;2.38;100.00
76858;BME280;65830;0.000;0.000;2023-12-20T01:08:43;100139.13;;;2.34;100.00
76858;BME280;65830;0.000;0.000;2023-12-20T01:11:09;100139.13;;;2.34;100.00
76858;BME280;65830;0.000;0.000;2023-12-20T01:13:34;100136.56;;;2.33;100.00
76858;BME280;65830;0.000;0.000;2023-12-20T01:16:00;100130.50;;;2.32;100.00
76858;BME280;65830;0.000;0.000;2023-12-20T01:18:25;100122.88;;;2.45;100.00
76858;BME280;65830;0.000;0.000;2023-12-20T01:20:51;100116.94;;;2.42;100.00
76858;BME280;65830;0.000;0.000;2023-12-20T01:23:16;100118.00;;;2.37;100.00
76858;BME280;65830;0.000;0.000;2023-12-20T01:25:42;100108.00;;;2.28;100.00
76858;BME280;65830;0.000;0.000;2023-12-20T01:28:08;100100.22;;;2.27;100.00
76858;BME280;65830;0.000;0.000;2023-12-20T01:30:34;100108.22;;;2.24;100.00
76858;BME280;65830;0.000;0.000;2023-12-20T01:33:00;100102.91;;;2.25;100.00
76858;BME280;65830;0.000;0.000;2023-12-20T01:35:25;100108.78;;;2.30;100.00
76858;BME280;65830;0.000;0.000;2023-12-20T01:37:51;100106.84;;;2.16;100.00
76858;BME280;65830;0.000;0.000;2023-12-20T01:40:16;100103.22;;;2.19;100.00
76858;BME280;65830;0.000;0.000;2023-12-20T01:42:42;100107.03;;;2.12;100.00
76858;BME280;65830;0.000;0.000;2023-12-20T01:45:08;100101.81;;;2.12;100.00
76858;BME280;65830;0.000;0.000;2023-12-20T01:47:33;100101.38;;;2.21;100.00
76858;BME280;65830;0.000;0.000;2023-12-20T01:49:59;100092.19;;;2.12;100.00
76858;BME280;65830;0.000;0.000;2023-12-20T01:52:25;100095.31;;;2.02;100.00
76858;BME280;65830;0.000;0.000;2023-12-20T01:54:51;100089.53;;;1.95;100.00
76858;BME280;65830;0.000;0.000;2023-12-20T01:57:16;100091.38;;;1.93;100.00
76858;BME280;65830;0.000;0.000;2023-12-20T01:59:42;100084.31;;;1.95;100.00
76858;BME280;65830;0.000;0.000;2023-12-20T02:02:08;100076.47;;;1.95;100.00
76858;BME280;65830;0.000;0.000;2023-12-20T02:04:34;100076.69;;;1.90;100.00
76858;BME280;65830;0.000;0.000;2023-12-20T02:06:59;100061.91;;;1.89;100.00
76858;BME280;65830;0.000;0.000;2023-12-20T02:09:25;100062.31;;;1.80;100.00
76858;BME280;65830;0.000;0.000;2023-12-20T02:11:51;100057.09;;;1.80;100.00
76858;BME280;65830;0.000;0.000;2023-12-20T02:14:17;100058.94;;;1.78;100.00
76858;BME280;65830;0.000;0.000;2023-12-20T02:16:42;100050.47;;;1.73;100.00
76858;BME280;65830;0.000;0.000;2023-12-20T02:19:12;100049.84;;;1.68;100.00
76858;BME280;65830;0.000;0.000;2023-12-20T02:21:38;100052.44;;;1.87;100.00
76858;BME280;65830;0.000;0.000;2023-12-20T02:24:04;100048.41;;;1.79;100.00
76858;BME280;65830;0.000;0.000;2023-12-20T02:26:29;100044.72;;;1.84;100.00
76858;BME280;65830;0.000;0.000;2023-12-20T02:28:56;100038.09;;;1.94;100.00
76858;BME280;65830;0.000;0.000;2023-12-20T02:31:22;100036.50;;;1.91;100.00
76858;BME280;65830;0.000;0.000;2023-12-20T02:33:48;100044.47;;;1.88;100.00
76858;BME280;65830;0.000;0.000;2023-12-20T02:36:13;100040.31;;;1.84;100.00
76858;BME280;65830;0.000;0.000;2023-12-20T02:38:39;100037.22;;;1.76;100.00
76858;BME280;65830;0.000;0.000;2023-12-20T02:41:04;100035.31;;;1.79;100.00
76858;BME280;65830;0.000;0.000;2023-12-20T02:43:30;100037.22;;;1.76;100.00
76858;BME280;65830;0.000;0.000;2023-12-20T02:45:55;100043.66;;;1.88;100.00
76858;BME280;65830;0.000;0.000;2023-12-20T02:48:21;100031.13;;;1.94;100.00
76858;BME280;65830;0.000;0.000;2023-12-20T02:50:46;100020.94;;;1.88;100.00
76858;BME280;65830;0.000;0.000;2023-12-20T02:53:13;100020.25;;;1.85;100.00
76858;BME280;65830;0.000;0.000;2023-12-20T02:55:38;100023.38;;;1.74;100.00
76858;BME280;65830;0.000;0.000;2023-12-20T02:58:04;100020.28;;;1.66;100.00
76858;BME280;65830;0.000;0.000;2023-12-20T03:00:29;100016.19;;;1.60;100.00
76858;BME280;65830;0.000;0.000;2023-12-20T03:02:54;100012.50;;;1.64;100.00
76858;BME280;65830;0.000;0.000;2023-12-20T03:05:20;100010.81;;;1.63;100.00
76858;BME280;65830;0.000;0.000;2023-12-20T03:07:46;100015.28;;;1.61;100.00
76858;BME280;65830;0.000;0.000;2023-12-20T03:10:11;100004.25;;;1.54;100.00
76858;BME280;65830;0.000;0.000;2023-12-20T03:12:37;100006.88;;;1.54;100.00
76858;BME280;65830;0.000;0.000;2023-12-20T03:15:02;99999.41;;;1.47;100.00
76858;BME280;65830;0.000;0.000;2023-12-20T03:17:28;100007.44;;;1.42;100.00
76858;BME280;65830;0.000;0.000;2023-12-20T03:19:53;100002.22;;;1.42;100.00
76858;BME280;65830;0.000;0.000;2023-12-20T03:22:18;100001.16;;;1.46;100.00
76858;BME280;65830;0.000;0.000;2023-12-20T03:24:44;100001.75;;;1.34;100.00
76858;BME280;65830;0.000;0.000;2023-12-20T03:27:09;100002.94;;;1.46;100.00
76858;BME280;65830;0.000;0.000;2023-12-20T03:29:35;99993.31;;;1.46;100.00
76858;BME280;65830;0.000;0.000;2023-12-20T03:32:00;99996.38;;;1.37;100.00
76858;BME280;65830;0.000;0.000;2023-12-20T03:34:26;99999.91;;;1.36;100.00
76858;BME280;65830;0.000;0.000;2023-12-20T03:36:52;99995.09;;;1.27;100.00
76858;BME280;65830;0.000;0.000;2023-12-20T03:39:17;99994.31;;;1.25;100.00
76858;BME280;65830;0.000;0.000;2023-12-20T03:41:43;99990.38;;;1.16;100.00
76858;BME280;65830;0.000;0.000;2023-12-20T03:44:08;99980.69;;;1.18;100.00
76858;BME280;65830;0.000;0.000;2023-12-20T03:46:33;99987.63;;;1.19;100.00
76858;BME280;65830;0.000;0.000;2023-12-20T03:48:59;99979.09;;;1.15;100.00
76858;BME280;65830;0.000;0.000;2023-12-20T03:51:24;99990.59;;;1.11;100.00
76858;BME280;65830;0.000;0.000;2023-12-20T03:53:50;99987.81;;;1.14;100.00
76858;BME280;65830;0.000;0.000;2023-12-20T03:56:15;99994.97;;;1.11;100.00
76858;BME280;65830;0.000;0.000;2023-12-20T03:58:41;99997.13;;;1.01;100.00
76858;BME280;65830;0.000;0.000;2023-12-20T04:01:10;99992.91;;;0.98;100.00
76858;BME280;65830;0.000;0.000;2023-12-20T04:03:38;99991.13;;;0.99;100.00
76858;BME280;65830;0.000;0.000;2023-12-20T04:06:05;99998.00;;;1.02;100.00
76858;BME280;65830;0.000;0.000;2023-12-20T04:08:31;99993.91;;;0.96;100.00
76858;BME280;65830;0.000;0.000;2023-12-20T04:10:56;99985.13;;;0.97;100.00
76858;BME280;65830;0.000;0.000;2023-12-20T04:13:22;99986.00;;;0.97;100.00
76858;BME280;65830;0.000;0.000;2023-12-20T04:15:47;99980.19;;;0.91;100.00
76858;BME280;65830;0.000;0.000;2023-12-20T04:18:15;99983.59;;;0.93;100.00
76858;BME280;65830;0.000;0.000;2023-12-20T04:20:40;99985.25;;;0.75;100.00
76858;BME280;65830;0.000;0.000;2023-12-20T04:23:06;99981.69;;;0.77;100.00
76858;BME280;65830;0.000;0.000;2023-12-20T04:25:31;99983.38;;;0.78;100.00
76858;BME280;65830;0.000;0.000;2023-12-20T04:27:57;99982.03;;;0.89;100.00
76858;BME280;65830;0.000;0.000;2023-12-20T04:30:22;99972.97;;;0.77;100.00
76858;BME280;65830;0.000;0.000;2023-12-20T04:32:48;99989.94;;;0.68;100.00
76858;BME280;65830;0.000;0.000;2023-12-20T04:35:13;99973.41;;;0.68;100.00
76858;BME280;65830;0.000;0.000;2023-12-20T04:37:39;99979.16;;;0.55;100.00
76858;BME280;65830;0.000;0.000;2023-12-20T04:40:04;99976.47;;;0.57;100.00
76858;BME280;65830;0.000;0.000;2023-12-20T04:42:30;99965.84;;;0.62;100.00
76858;BME280;65830;0.000;0.000;2023-12-20T04:44:56;99965.59;;;0.68;100.00
76858;BME280;65830;0.000;0.000;2023-12-20T04:47:21;99960.53;;;0.63;100.00
76858;BME280;65830;0.000;0.000;2023-12-20T04:49:47;99952.88;;;0.60;100.00
76858;BME280;65830;0.000;0.000;2023-12-20T04:52:13;99952.34;;;0.52;100.00
76858;BME280;65830;0.000;0.000;2023-12-20T04:54:39;99955.25;;;0.46;100.00
76858;BME280;65830;0.000;0.000;2023-12-20T04:57:05;99958.38;;;0.54;100.00
76858;BME280;65830;0.000;0.000;2023-12-20T04:59:30;99955.59;;;0.57;100.00
76858;BME280;65830;0.000;0.000;2023-12-20T05:01:56;99955.31;;;0.63;100.00
76858;BME280;65830;0.000;0.000;2023-12-20T05:04:22;99949.13;;;0.66;100.00
76858;BME280;65830;0.000;0.000;2023-12-20T05:06:48;99949.81;;;0.69;100.00
76858;BME280;65830;0.000;0.000;2023-12-20T05:09:15;99949.63;;;0.93;100.00
76858;BME280;65830;0.000;0.000;2023-12-20T05:11:40;99953.28;;;0.89;100.00
76858;BME280;65830;0.000;0.000;2023-12-20T05:14:06;99945.47;;;0.89;100.00
76858;BME280;65830;0.000;0.000;2023-12-20T05:16:32;99946.09;;;0.75;100.00
76858;BME280;65830;0.000;0.000;2023-12-20T05:18:58;99946.97;;;0.75;100.00
76858;BME280;65830;0.000;0.000;2023-12-20T05:21:26;99938.91;;;0.80;100.00
76858;BME280;65830;0.000;0.000;2023-12-20T05:23:51;99938.56;;;0.88;100.00
76858;BME280;65830;0.000;0.000;2023-12-20T05:26:17;99932.75;;;1.00;100.00
76858;BME280;65830;0.000;0.000;2023-12-20T05:28:42;99933.88;;;1.13;100.00
76858;BME280;65830;0.000;0.000;2023-12-20T05:31:08;99932.81;;;0.98;100.00
76858;BME280;65830;0.000;0.000;2023-12-20T05:33:34;99933.03;;;0.94;100.00
76858;BME280;65830;0.000;0.000;2023-12-20T05:35:59;99925.63;;;0.85;100.00
76858;BME280;65830;0.000;0.000;2023-12-20T05:38:25;99923.50;;;0.93;100.00
76858;BME280;65830;0.000;0.000;2023-12-20T05:40:50;99920.69;;;0.97;100.00
76858;BME280;65830;0.000;0.000;2023-12-20T05:43:16;99907.81;;;1.12;100.00
76858;BME280;65830;0.000;0.000;2023-12-20T05:45:41;99919.56;;;1.03;100.00
76858;BME280;65830;0.000;0.000;2023-12-20T05:48:07;99916.44;;;0.95;100.00
76858;BME280;65830;0.000;0.000;2023-12-20T05:50:32;99905.50;;;0.87;100.00
76858;BME280;65830;0.000;0.000;2023-12-20T05:53:00;99908.88;;;0.89;100.00
76858;BME280;65830;0.000;0.000;2023-12-20T05:55:25;99908.31;;;1.01;100.00
76858;BME280;65830;0.000;0.000;2023-12-20T05:57:51;99915.16;;;1.04;100.00
76858;BME280;65830;0.000;0.000;2023-12-20T06:00:16;99896.66;;;1.08;100.00
76858;BME280;65830;0.000;0.000;2023-12-20T06:02:42;99905.19;;;1.12;100.00
76858;BME280;65830;0.000;0.000;2023-12-20T06:05:08;99898.97;;;1.14;100.00
76858;BME280;65830;0.000;0.000;2023-12-20T06:07:33;99903.88;;;1.03;100.00
76858;BME280;65830;0.000;0.000;2023-12-20T06:09:59;99900.25;;;1.06;100.00
76858;BME280;65830;0.000;0.000;2023-12-20T06:12:24;99895.44;;;1.15;100.00
76858;BME280;65830;0.000;0.000;2023-12-20T06:14:52;99890.47;;;1.28;100.00
76858;BME280;65830;0.000;0.000;2023-12-20T06:17:17;99886.56;;;1.37;100.00
76858;BME280;65830;0.000;0.000;2023-12-20T06:19:43;99901.41;;;1.54;100.00
76858;BME280;65830;0.000;0.000;2023-12-20T06:22:10;99901.88;;;1.62;100.00
76858;BME280;65830;0.000;0.000;2023-12-20T06:24:36;99894.97;;;1.61;100.00
76858;BME280;65830;0.000;0.000;2023-12-20T06:27:01;99894.13;;;1.43;100.00
76858;BME280;65830;0.000;0.000;2023-12-20T06:29:27;99899.09;;;1.48;100.00
76858;BME280;65830;0.000;0.000;2023-12-20T06:31:53;99893.63;;;1.52;100.00
76858;BME280;65830;0.000;0.000;2023-12-20T06:34:18;99895.09;;;1.41;100.00
76858;BME280;65830;0.000;0.000;2023-12-20T06:36:44;99891.66;;;1.57;100.00
76858;BME280;65830;0.000;0.000;2023-12-20T06:39:09;99889.13;;;1.73;100.00
76858;BME280;65830;0.000;0.000;2023-12-20T06:41:38;99891.53;;;1.61;100.00
76858;BME280;65830;0.000;0.000;2023-12-20T06:44:03;99913.97;;;1.65;100.00
76858;BME280;65830;0.000;0.000;2023-12-20T06:46:29;99897.59;;;1.61;100.00
76858;BME280;65830;0.000;0.000;2023-12-20T06:48:54;99893.72;;;1.68;100.00
76858;BME280;65830;0.000;0.000;2023-12-20T06:51:20;99894.28;;;1.75;100.00
76858;BME280;65830;0.000;0.000;2023-12-20T06:53:45;99896.03;;;1.74;100.00
76858;BME280;65830;0.000;0.000;2023-12-20T06:56:11;99884.59;;;1.94;100.00
76858;BME280;65830;0.000;0.000;2023-12-20T06:58:37;99885.25;;;1.98;100.00
76858;BME280;65830;0.000;0.000;2023-12-20T07:01:03;99886.00;;;2.17;100.00
76858;BME280;65830;0.000;0.000;2023-12-20T07:03:29;99880.78;;;2.33;100.00
76858;BME280;65830;0.000;0.000;2023-12-20T07:05:55;99886.59;;;2.56;100.00
76858;BME280;65830;0.000;0.000;2023-12-20T07:08:20;99867.41;;;2.71;100.00
76858;BME280;65830;0.000;0.000;2023-12-20T07:10:46;99873.59;;;2.70;100.00
76858;BME280;65830;0.000;0.000;2023-12-20T07:13:11;99878.75;;;2.88;100.00
76858;BME280;65830;0.000;0.000;2023-12-20T07:15:37;99876.03;;;2.89;100.00
76858;BME280;65830;0.000;0.000;2023-12-20T07:18:03;99877.38;;;2.81;100.00
76858;BME280;65830;0.000;0.000;2023-12-20T07:20:28;99873.31;;;2.75;100.00
76858;BME280;65830;0.000;0.000;2023-12-20T07:22:54;99865.88;;;2.83;100.00
76858;BME280;65830;0.000;0.000;2023-12-20T07:25:20;99866.31;;;2.91;100.00
76858;BME280;65830;0.000;0.000;2023-12-20T07:27:45;99860.13;;;3.08;100.00
76858;BME280;65830;0.000;0.000;2023-12-20T07:30:11;99862.41;;;3.14;100.00
76858;BME280;65830;0.000;0.000;2023-12-20T07:32:36;99852.91;;;3.28;100.00
76858;BME280;65830;0.000;0.000;2023-12-20T07:35:02;99847.56;;;3.45;100.00
76858;BME280;65830;0.000;0.000;2023-12-20T07:37:28;99844.59;;;3.66;99.23
76858;BME280;65830;0.000;0.000;2023-12-20T07:39:53;99853.38;;;3.65;98.53
76858;BME280;65830;0.000;0.000;2023-12-20T07:42:19;99851.28;;;4.00;97.05
76858;BME280;65830;0.000;0.000;2023-12-20T07:44:45;99852.84;;;4.18;94.78
76858;BME280;65830;0.000;0.000;2023-12-20T07:47:10;99850.66;;;4.25;92.92
76858;BME280;65830;0.000;0.000;2023-12-20T07:49:37;99844.47;;;4.26;91.45
76858;BME280;65830;0.000;0.000;2023-12-20T07:52:02;99856.38;;;4.32;92.53
76858;BME280;65830;0.000;0.000;2023-12-20T07:54:28;99842.22;;;4.34;91.11
76858;BME280;65830;0.000;0.000;2023-12-20T07:56:53;99842.50;;;4.30;91.24
76858;BME280;65830;0.000;0.000;2023-12-20T07:59:19;99838.09;;;4.30;92.26
76858;BME280;65830;0.000;0.000;2023-12-20T08:01:44;99839.72;;;4.74;91.40
76858;BME280;65830;0.000;0.000;2023-12-20T08:04:10;99829.75;;;4.80;88.98
76858;BME280;65830;0.000;0.000;2023-12-20T08:06:36;99831.28;;;4.69;88.26
76858;BME280;65830;0.000;0.000;2023-12-20T08:09:01;99833.63;;;5.01;87.13
76858;BME280;65830;0.000;0.000;2023-12-20T08:11:27;99828.19;;;4.63;87.43
76858;BME280;65830;0.000;0.000;2023-12-20T08:13:52;99826.25;;;4.37;88.12
76858;BME280;65830;0.000;0.000;2023-12-20T08:16:17;99832.84;;;4.45;89.11
76858;BME280;65830;0.000;0.000;2023-12-20T08:18:43;99827.75;;;4.42;89.87
76858;BME280;65830;0.000;0.000;2023-12-20T08:21:09;99822.38;;;4.72;89.25
76858;BME280;65830;0.000;0.000;2023-12-20T08:23:34;99822.63;;;4.82;87.92
76858;BME280;65830;0.000;0.000;2023-12-20T08:26:06;99822.91;;;5.04;87.67
76858;BME280;65830;0.000;0.000;2023-12-20T08:28:32;99813.75;;;5.37;85.08
76858;BME280;65830;0.000;0.000;2023-12-20T08:30:57;99814.28;;;5.29;84.80
76858;BME280;65830;0.000;0.000;2023-12-20T08:33:23;99808.66;;;5.61;84.39
76858;BME280;65830;0.000;0.000;2023-12-20T08:35:49;99803.47;;;5.60;83.78
76858;BME280;65830;0.000;0.000;2023-12-20T08:38:14;99796.84;;;5.80;82.98
76858;BME280;65830;0.000;0.000;2023-12-20T08:40:40;99789.81;;;5.93;82.29
76858;BME280;65830;0.000;0.000;2023-12-20T08:43:05;99789.59;;;5.83;82.16
76858;BME280;65830;0.000;0.000;2023-12-20T08:45:31;99778.75;;;5.88;81.82
76858;BME280;65830;0.000;0.000;2023-12-20T08:47:56;99774.09;;;5.91;82.45
76858;BME280;65830;0.000;0.000;2023-12-20T08:50:22;99773.69;;;5.85;83.18
76858;BME280;65830;0.000;0.000;2023-12-20T08:52:47;99771.78;;;5.74;82.21
76858;BME280;65830;0.000;0.000;2023-12-20T08:55:13;99760.31;;;5.75;83.35
76858;BME280;65830;0.000;0.000;2023-12-20T08:57:40;99759.88;;;5.94;82.24
76858;BME280;65830;0.000;0.000;2023-12-20T09:00:06;99751.34;;;5.65;82.85
76858;BME280;65830;0.000;0.000;2023-12-20T09:02:33;99744.72;;;5.72;83.91
76858;BME280;65830;0.000;0.000;2023-12-20T09:05:01;99745.56;;;5.85;82.99
76858;BME280;65830;0.000;0.000;2023-12-20T09:07:27;99745.75;;;5.82;82.70
76858;BME280;65830;0.000;0.000;2023-12-20T09:09:55;99735.56;;;6.03;83.10
76858;BME280;65830;0.000;0.000;2023-12-20T09:12:21;99725.91;;;6.28;82.06
76858;BME280;65830;0.000;0.000;2023-12-20T09:14:47;99714.97;;;6.21;81.81
76858;BME280;65830;0.000;0.000;2023-12-20T09:17:12;99714.44;;;6.53;81.41
76858;BME280;65830;0.000;0.000;2023-12-20T09:19:38;99706.09;;;6.35;80.94
76858;BME280;65830;0.000;0.000;2023-12-20T09:22:04;99706.03;;;6.48;80.47
76858;BME280;65830;0.000;0.000;2023-12-20T09:24:30;99705.53;;;6.43;80.88
76858;BME280;65830;0.000;0.000;2023-12-20T09:26:55;99689.47;;;6.46;80.84
76858;BME280;65830;0.000;0.000;2023-12-20T09:29:21;99695.34;;;6.62;80.30
76858;BME280;65830;0.000;0.000;2023-12-20T09:31:46;99690.72;;;6.77;79.59
76858;BME280;65830;0.000;0.000;2023-12-20T09:34:14;99692.16;;;6.81;80.08
76858;BME280;65830;0.000;0.000;2023-12-20T09:36:39;99689.03;;;6.76;79.65
76858;BME280;65830;0.000;0.000;2023-12-20T09:39:12;99687.59;;;6.83;79.18
76858;BME280;65830;0.000;0.000;2023-12-20T09:41:38;99674.72;;;7.03;78.67
76858;BME280;65830;0.000;0.000;2023-12-20T09:44:04;99665.22;;;6.89;78.35
76858;BME280;65830;0.000;0.000;2023-12-20T09:46:31;99660.72;;;7.13;78.24
76858;BME280;65830;0.000;0.000;2023-12-20T09:48:59;99655.81;;;7.20;77.28
76858;BME280;65830;0.000;0.000;2023-12-20T09:51:26;99653.53;;;7.27;75.29
76858;BME280;65830;0.000;0.000;2023-12-20T09:53:53;99639.66;;;7.36;75.92
76858;BME280;65830;0.000;0.000;2023-12-20T09:56:20;99645.41;;;7.30;76.19
76858;BME280;65830;0.000;0.000;2023-12-20T09:58:46;99639.25;;;7.29;76.34
76858;BME280;65830;0.000;0.000;2023-12-20T10:01:12;99636.41;;;7.32;75.92
76858;BME280;65830;0.000;0.000;2023-12-20T10:03:37;99631.97;;;7.22;76.09
76858;BME280;65830;0.000;0.000;2023-12-20T10:06:05;99629.31;;;7.44;74.49
76858;BME280;65830;0.000;0.000;2023-12-20T10:08:31;99624.28;;;7.41;73.56
76858;BME280;65830;0.000;0.000;2023-12-20T10:10:57;99612.50;;;7.23;74.46
76858;BME280;65830;0.000;0.000;2023-12-20T10:13:27;99611.09;;;7.30;75.19
76858;BME280;65830;0.000;0.000;2023-12-20T10:15:54;99602.69;;;7.25;74.60
76858;BME280;65830;0.000;0.000;2023-12-20T10:18:20;99607.00;;;7.26;74.17
76858;BME280;65830;0.000;0.000;2023-12-20T10:20:45;99594.25;;;7.65;72.76
76858;BME280;65830;0.000;0.000;2023-12-20T10:23:11;99596.78;;;7.78;71.68
76858;BME280;65830;0.000;0.000;2023-12-20T10:25:37;99587.22;;;8.09;70.85
76858;BME280;65830;0.000;0.000;2023-12-20T10:28:10;99582.81;;;7.87;69.61
76858;BME280;65830;0.000;0.000;2023-12-20T10:30:36;99578.13;;;8.34;67.64
76858;BME280;65830;0.000;0.000;2023-12-20T10:33:01;99573.81;;;8.33;67.13
76858;BME280;65830;0.000;0.000;2023-12-20T10:35:27;99565.53;;;8.26;66.98
76858;BME280;65830;0.000;0.000;2023-12-20T10:37:54;99565.00;;;8.44;66.94
76858;BME280;65830;0.000;0.000;2023-12-20T10:40:20;99567.13;;;8.50;66.57
76858;BME280;65830;0.000;0.000;2023-12-20T10:42:46;99560.78;;;8.52;66.33
76858;BME280;65830;0.000;0.000;2023-12-20T10:45:12;99552.75;;;8.85;66.99
76858;BME280;65830;0.000;0.000;2023-12-20T10:47:38;99539.75;;;9.33;64.61
76858;BME280;65830;0.000;0.000;2023-12-20T10:50:05;99533.03;;;9.70;62.97
76858;BME280;65830;0.000;0.000;2023-12-20T10:52:31;99529.19;;;9.43;61.71
76858;BME280;65830;0.000;0.000;2023-12-20T10:54:57;99531.75;;;9.64;62.43
76858;BME280;65830;0.000;0.000;2023-12-20T10:57:23;99519.78;;;9.70;61.64
76858;BME280;65830;0.000;0.000;2023-12-20T10:59:51;99524.41;;;9.87;61.50
76858;BME280;65830;0.000;0.000;2023-12-20T11:02:18;99517.03;;;10.20;61.44
76858;BME280;65830;0.000;0.000;2023-12-20T11:04:47;99510.31;;;10.26;59.98
76858;BME280;65830;0.000;0.000;2023-12-20T11:07:17;99510.91;;;10.49;58.31
76858;BME280;65830;0.000;0.000;2023-12-20T11:09:47;99503.31;;;10.64;58.12
76858;BME280;65830;0.000;0.000;2023-12-20T11:12:18;99494.72;;;10.89;58.33
76858;BME280;65830;0.000;0.000;2023-12-20T11:14:48;99487.16;;;11.32;56.71
76858;BME280;65830;0.000;0.000;2023-12-20T11:17:14;99484.38;;;11.51;55.52
76858;BME280;65830;0.000;0.000;2023-12-20T11:22:26;99483.16;;;12.09;53.47
76858;BME280;65830;0.000;0.000;2023-12-20T11:24:53;99471.88;;;12.34;51.77
76858;BME280;65830;0.000;0.000;2023-12-20T11:27:19;99471.34;;;12.82;50.52
76858;BME280;65830;0.000;0.000;2023-12-20T11:29:51;99465.38;;;12.10;51.47
76858;BME280;65830;0.000;0.000;2023-12-20T11:34:55;99460.72;;;11.58;53.90
76858;BME280;65830;0.000;0.000;2023-12-20T11:37:21;99454.88;;;11.27;54.42
76858;BME280;65830;0.000;0.000;2023-12-20T11:39:55;99448.22;;;11.41;55.30
76858;BME280;65830;0.000;0.000;2023-12-20T11:42:21;99443.09;;;11.93;53.90
76858;BME280;65830;0.000;0.000;2023-12-20T11:44:49;99443.31;;;12.18;52.62
76858;BME280;65830;0.000;0.000;2023-12-20T11:47:15;99436.75;;;12.30;53.08
76858;BME280;65830;0.000;0.000;2023-12-20T11:49:41;99436.91;;;12.28;52.94
76858;BME280;65830;0.000;0.000;2023-12-20T11:52:06;99430.44;;;12.83;51.29
76858;BME280;65830;0.000;0.000;2023-12-20T11:54:32;99422.94;;;12.26;52.75
76858;BME280;65830;0.000;0.000;2023-12-20T11:56:57;99417.50;;;13.31;49.84
76858;BME280;65830;0.000;0.000;2023-12-20T11:59:23;99413.72;;;13.66;48.94
76858;BME280;65830;0.000;0.000;2023-12-20T12:01:48;99404.72;;;13.51;49.30
76858;BME280;65830;0.000;0.000;2023-12-20T12:04:15;99411.94;;;12.82;50.58
76858;BME280;65830;0.000;0.000;2023-12-20T12:06:43;99398.22;;;12.08;52.31
76858;BME280;65830;0.000;0.000;2023-12-20T12:09:08;99394.81;;;11.80;53.10
76858;BME280;65830;0.000;0.000;2023-12-20T12:11:34;99398.69;;;11.67;55.02
76858;BME280;65830;0.000;0.000;2023-12-20T12:13:59;99395.97;;;11.13;57.15
76858;BME280;65830;0.000;0.000;2023-12-20T12:16:26;99379.75;;;10.89;58.32
76858;BME280;65830;0.000;0.000;2023-12-20T12:18:57;99386.28;;;10.67;60.47
76858;BME280;65830;0.000;0.000;2023-12-20T12:21:23;99382.09;;;10.37;62.24
76858;BME280;65830;0.000;0.000;2023-12-20T12:23:49;99375.09;;;10.36;63.18
76858;BME280;65830;0.000;0.000;2023-12-20T12:26:14;99379.16;;;10.30;64.89
76858;BME280;65830;0.000;0.000;2023-12-20T12:28:40;99374.72;;;10.58;65.48
76858;BME280;65830;0.000;0.000;2023-12-20T12:31:07;99364.72;;;10.80;64.12
76858;BME280;65830;0.000;0.000;2023-12-20T12:33:32;99377.94;;;10.62;64.39
76858;BME280;65830;0.000;0.000;2023-12-20T12:35:58;99371.63;;;10.72;64.51
76858;BME280;65830;0.000;0.000;2023-12-20T12:38:25;99367.78;;;10.47;64.56
76858;BME280;65830;0.000;0.000;2023-12-20T12:40:50;99364.31;;;10.47;65.51
76858;BME280;65830;0.000;0.000;2023-12-20T12:43:18;99359.81;;;10.57;64.61
76858;BME280;65830;0.000;0.000;2023-12-20T12:45:44;99361.28;;;10.32;65.17
76858;BME280;65830;0.000;0.000;2023-12-20T12:48:09;99354.00;;;10.24;66.89
76858;BME280;65830;0.000;0.000;2023-12-20T12:50:35;99361.50;;;10.48;66.62
76858;BME280;65830;0.000;0.000;2023-12-20T12:53:01;99349.09;;;11.04;63.05
76858;BME280;65830;0.000;0.000;2023-12-20T12:55:28;99351.06;;;10.75;63.30
76858;BME280;65830;0.000;0.000;2023-12-20T12:57:53;99357.44;;;10.82;63.74
76858;BME280;65830;0.000;0.000;2023-12-20T13:00:19;99342.66;;;10.79;64.28
76858;BME280;65830;0.000;0.000;2023-12-20T13:02:45;99336.94;;;10.74;64.38
76858;BME280;65830;0.000;0.000;2023-12-20T13:05:10;99346.91;;;10.62;64.41
76858;BME280;65830;0.000;0.000;2023-12-20T13:07:36;99349.78;;;10.51;64.86